Time,TemperatureF,DewpointF,PressureIn,WindDirection,WindDirectionDegrees,WindSpeedMPH,WindSpeedGustMPH,Humidity,HourlyPrecipIn,Conditions,Clouds,dailyrainin,SolarRadiationWatts/m^2,SoftwareType,DateUTC
2013-09-24 00:02:00,27.0,27.0,-100.00,SSE,168,1.0,2.0,100,0.00,,,0.18,0.000000,,2013-09-24 08:02:00,
2013-09-24 00:11:00,27.0,27.0,-100.00,SSE,168,1.0,2.0,100,0.00,,,0.18,0.000000,,2013-09-24 08:11:00,
2013-09-24 00:22:00,27.0,27.0,-100.00,SSE,168,1.0,2.0,100,0.00,,,0.18,0.000000,,2013-09-24 08:22:00,
2013-09-24 00:52:00,27.0,27.0,-100.00,SE,136,1.0,3.0,100,0.00,,,0.18,0.000000,,2013-09-24 08:52:00,
2013-09-24 01:01:00,27.0,27.0,-100.00,SE,136,1.0,3.0,100,0.00,,,0.18,0.000000,,2013-09-24 09:01:00,
2013-09-24 01:11:00,27.0,27.0,-100.00,SE,136,1.0,3.0,100,0.00,,,0.18,0.000000,,2013-09-24 09:11:00,
2013-09-24 01:21:00,27.0,27.0,-100.00,SE,136,1.0,3.0,100,0.00,,,0.18,0.000000,,2013-09-24 09:21:00,
2013-09-24 01:54:00,26.0,26.0,-100.00,SE,139,1.0,2.0,100,0.00,,,0.18,0.000000,,2013-09-24 09:54:00,
2013-09-24 02:02:00,26.0,26.0,-100.00,SE,139,1.0,2.0,100,0.00,,,0.18,0.000000,,2013-09-24 10:02:00,
2013-09-24 02:13:00,26.0,26.0,-100.00,SE,139,1.0,2.0,100,0.00,,,0.18,0.000000,,2013-09-24 10:13:00,
2013-09-24 02:22:00,26.0,26.0,-100.00,SE,139,1.0,2.0,100,0.00,,,0.18,0.000000,,2013-09-24 10:22:00,
2013-09-24 02:53:00,26.0,26.0,-100.00,East,86,1.0,2.0,100,0.00,,,0.18,0.000000,,2013-09-24 10:53:00,
2013-09-24 03:03:00,26.0,26.0,-100.00,East,86,1.0,2.0,100,0.00,,,0.18,0.000000,,2013-09-24 11:03:00,
2013-09-24 03:11:00,26.0,26.0,-100.00,East,86,1.0,2.0,100,0.00,,,0.18,0.000000,,2013-09-24 11:11:00,
2013-09-24 03:22:00,26.0,26.0,-100.00,East,86,1.0,2.0,100,0.00,,,0.18,0.000000,,2013-09-24 11:22:00,
2013-09-24 03:52:00,25.0,25.0,-100.00,South,186,1.0,2.0,100,0.00,,,-99.99,0.000000,,2013-09-24 11:52:00,
2013-09-24 04:01:00,25.0,25.0,-100.00,South,186,1.0,2.0,100,0.00,,,-99.99,0.000000,,2013-09-24 12:01:00,
2013-09-24 04:12:00,25.0,25.0,-100.00,South,186,1.0,2.0,100,0.00,,,-99.99,0.000000,,2013-09-24 12:12:00,
2013-09-24 04:21:00,25.0,25.0,-100.00,South,186,1.0,2.0,100,0.00,,,-99.99,0.000000,,2013-09-24 12:21:00,
2013-09-24 04:52:00,26.0,26.0,-100.00,SSE,165,1.0,2.0,100,0.00,,,0.18,0.000000,,2013-09-24 12:52:00,
2013-09-24 05:01:00,26.0,26.0,-100.00,SSE,165,1.0,2.0,100,0.00,,,0.18,0.000000,,2013-09-24 13:01:00,
2013-09-24 05:11:00,26.0,26.0,-100.00,SSE,165,1.0,2.0,100,0.00,,,0.18,0.000000,,2013-09-24 13:11:00,
2013-09-24 05:21:00,26.0,26.0,-100.00,SSE,165,1.0,2.0,100,0.00,,,0.18,0.000000,,2013-09-24 13:21:00,
2013-09-24 05:52:00,25.0,25.0,-100.00,South,177,0.0,2.0,100,0.00,,,0.18,0.000000,,2013-09-24 13:52:00,
2013-09-24 06:02:00,25.0,25.0,-100.00,South,177,0.0,2.0,100,0.00,,,0.18,0.000000,,2013-09-24 14:02:00,
2013-09-24 06:12:00,25.0,25.0,-100.00,South,177,0.0,2.0,100,0.00,,,0.18,0.000000,,2013-09-24 14:12:00,
2013-09-24 06:21:00,25.0,25.0,-100.00,South,177,0.0,2.0,100,0.00,,,0.18,0.000000,,2013-09-24 14:21:00,
2013-09-24 06:52:00,23.0,23.0,-100.00,SSW,206,0.0,2.0,100,0.00,,,0.18,0.000000,,2013-09-24 14:52:00,
2013-09-24 07:01:00,23.0,23.0,-100.00,SSW,206,0.0,2.0,100,0.00,,,0.18,0.000000,,2013-09-24 15:01:00,
2013-09-24 07:11:00,23.0,23.0,-100.00,SSW,206,0.0,2.0,100,0.00,,,0.18,0.000000,,2013-09-24 15:11:00,
2013-09-24 07:22:00,23.0,23.0,-100.00,SSW,206,0.0,2.0,100,0.00,,,0.18,0.000000,,2013-09-24 15:22:00,
2013-09-24 08:22:00,21.0,21.0,-100.00,WSW,247,1.0,2.0,100,0.00,,,0.18,0.000000,,2013-09-24 16:22:00,
2013-09-24 08:53:00,21.0,21.0,-100.00,SSW,194,0.0,2.0,100,0.00,,,-99.99,5.000000,,2013-09-24 16:53:00,
2013-09-24 09:02:00,21.0,21.0,-100.00,SSW,194,0.0,2.0,100,0.00,,,-99.99,5.000000,,2013-09-24 17:02:00,
2013-09-24 09:13:00,21.0,21.0,-100.00,SSW,194,0.0,2.0,100,0.00,,,-99.99,5.000000,,2013-09-24 17:13:00,
2013-09-24 09:23:00,21.0,21.0,-100.00,SSW,194,0.0,2.0,100,0.00,,,-99.99,5.000000,,2013-09-24 17:23:00,
2013-09-24 09:54:00,23.0,23.0,-100.00,SE,129,1.0,3.0,100,0.00,,,0.18,17.000000,,2013-09-24 17:54:00,
2013-09-24 10:03:00,23.0,23.0,-100.00,SE,129,1.0,3.0,100,0.00,,,0.18,17.000000,,2013-09-24 18:03:00,
2013-09-24 10:12:00,23.0,23.0,-100.00,SE,129,1.0,3.0,100,0.00,,,0.18,17.000000,,2013-09-24 18:12:00,
2013-09-24 10:52:00,31.0,31.0,-100.00,SE,138,2.0,4.0,100,-99.99,,,0.18,116.000000,,2013-09-24 18:52:00,
2013-09-24 11:01:00,31.0,31.0,-100.00,SE,138,2.0,4.0,100,-99.99,,,0.18,116.000000,,2013-09-24 19:01:00,
2013-09-24 11:11:00,31.0,31.0,-100.00,SE,138,2.0,4.0,100,-99.99,,,0.18,116.000000,,2013-09-24 19:11:00,
2013-09-24 11:22:00,31.0,31.0,-100.00,SE,138,2.0,4.0,100,-99.99,,,0.18,116.000000,,2013-09-24 19:22:00,
2013-09-24 11:52:00,36.0,36.0,-100.00,SE,146,2.0,5.0,100,0.00,,,0.18,207.000000,,2013-09-24 19:52:00,
2013-09-24 12:02:00,36.0,36.0,-100.00,SE,146,2.0,5.0,100,0.00,,,0.18,207.000000,,2013-09-24 20:02:00,
2013-09-24 12:11:00,36.0,36.0,-100.00,SE,146,2.0,5.0,100,0.00,,,0.18,207.000000,,2013-09-24 20:11:00,
2013-09-24 12:22:00,36.0,36.0,-100.00,SE,146,2.0,5.0,100,0.00,,,0.18,207.000000,,2013-09-24 20:22:00,
2013-09-24 12:52:00,41.0,37.0,-100.00,SSE,157,2.0,5.0,86,0.00,,,0.18,363.000000,,2013-09-24 20:52:00,
2013-09-24 13:02:00,41.0,37.0,-100.00,SSE,157,2.0,5.0,86,0.00,,,0.18,363.000000,,2013-09-24 21:02:00,
2013-09-24 13:12:00,41.0,37.0,-100.00,SSE,157,2.0,5.0,86,0.00,,,0.18,363.000000,,2013-09-24 21:12:00,
2013-09-24 13:21:00,41.0,37.0,-100.00,SSE,157,2.0,5.0,86,0.00,,,0.18,363.000000,,2013-09-24 21:21:00,
2013-09-24 13:54:00,43.0,37.0,-100.00,ESE,118,4.0,6.0,78,0.00,,,0.18,358.000000,,2013-09-24 21:54:00,
2013-09-24 14:04:00,43.0,37.0,-100.00,ESE,118,4.0,6.0,78,0.00,,,0.18,358.000000,,2013-09-24 22:04:00,
2013-09-24 14:13:00,43.0,37.0,-100.00,ESE,118,4.0,6.0,78,0.00,,,0.18,358.000000,,2013-09-24 22:13:00,
2013-09-24 14:23:00,43.0,37.0,-100.00,ESE,118,4.0,6.0,78,0.00,,,0.18,358.000000,,2013-09-24 22:23:00,
2013-09-24 14:54:00,44.0,37.0,-100.00,ESE,108,2.0,6.0,75,0.00,,,0.07,301.000000,,2013-09-24 22:54:00,
2013-09-24 15:03:00,44.0,37.0,-100.00,ESE,108,2.0,6.0,75,0.00,,,0.07,301.000000,,2013-09-24 23:03:00,
2013-09-24 15:13:00,44.0,37.0,-100.00,ESE,108,2.0,6.0,75,0.00,,,0.07,301.000000,,2013-09-24 23:13:00,
2013-09-24 15:22:00,44.0,37.0,-100.00,ESE,108,2.0,6.0,75,0.00,,,0.07,301.000000,,2013-09-24 23:22:00,
2013-09-24 15:53:00,44.0,37.0,-100.00,East,101,3.0,6.0,75,0.00,,,0.02,230.000000,,2013-09-24 23:53:00,
2013-09-24 16:02:00,44.0,37.0,-100.00,East,101,3.0,6.0,75,0.00,,,0.02,230.000000,,2013-09-25 00:02:00,
2013-09-24 16:12:00,44.0,37.0,-100.00,East,101,3.0,6.0,75,0.00,,,0.02,230.000000,,2013-09-25 00:12:00,
2013-09-24 16:22:00,44.0,37.0,-100.00,East,101,3.0,6.0,75,0.00,,,0.02,230.000000,,2013-09-25 00:22:00,
2013-09-24 16:52:00,42.0,36.0,-100.00,East,79,3.0,6.0,80,0.00,,,0.00,140.000000,,2013-09-25 00:52:00,
2013-09-24 17:02:00,42.0,36.0,-100.00,East,79,3.0,6.0,80,0.00,,,0.00,140.000000,,2013-09-25 01:02:00,
2013-09-24 17:12:00,42.0,36.0,-100.00,East,79,3.0,6.0,80,0.00,,,0.00,140.000000,,2013-09-25 01:12:00,
2013-09-24 17:21:00,42.0,36.0,-100.00,East,79,3.0,6.0,80,0.00,,,0.00,140.000000,,2013-09-25 01:21:00,
2013-09-24 17:52:00,42.0,37.0,-100.00,East,86,2.0,5.0,81,0.00,,,0.00,107.000000,,2013-09-25 01:52:00,
2013-09-24 18:02:00,42.0,37.0,-100.00,East,86,2.0,5.0,81,0.00,,,0.00,107.000000,,2013-09-25 02:02:00,
2013-09-24 18:11:00,42.0,37.0,-100.00,East,86,2.0,5.0,81,0.00,,,0.00,107.000000,,2013-09-25 02:11:00,
2013-09-24 18:21:00,42.0,37.0,-100.00,East,86,2.0,5.0,81,0.00,,,0.00,107.000000,,2013-09-25 02:21:00,
2013-09-24 18:52:00,41.0,36.0,-100.00,ESE,109,2.0,5.0,82,0.00,,,0.00,56.000000,,2013-09-25 02:52:00,
2013-09-24 19:02:00,41.0,36.0,-100.00,ESE,109,2.0,5.0,82,0.00,,,0.00,56.000000,,2013-09-25 03:02:00,
2013-09-24 19:11:00,41.0,36.0,-100.00,ESE,109,2.0,5.0,82,0.00,,,0.00,56.000000,,2013-09-25 03:11:00,
2013-09-24 19:23:00,41.0,36.0,-100.00,ESE,109,2.0,5.0,82,0.00,,,0.00,56.000000,,2013-09-25 03:23:00,
2013-09-24 19:54:00,39.0,36.0,-100.00,South,186,2.0,3.0,88,0.00,,,0.00,14.000000,,2013-09-25 03:54:00,
2013-09-24 20:04:00,39.0,36.0,-100.00,South,186,2.0,3.0,88,0.00,,,0.00,14.000000,,2013-09-25 04:04:00,
2013-09-24 20:14:00,39.0,36.0,-100.00,South,186,2.0,3.0,88,0.00,,,0.00,14.000000,,2013-09-25 04:14:00,
2013-09-24 20:24:00,39.0,36.0,-100.00,South,186,2.0,3.0,88,0.00,,,0.00,14.000000,,2013-09-25 04:24:00,
2013-09-24 20:54:00,38.0,36.0,-100.00,ESE,112,2.0,4.0,94,0.00,,,0.00,1.000000,,2013-09-25 04:54:00,
2013-09-24 21:03:00,38.0,36.0,-100.00,ESE,112,2.0,4.0,94,0.00,,,0.00,1.000000,,2013-09-25 05:03:00,
2013-09-24 21:12:00,38.0,36.0,-100.00,ESE,112,2.0,4.0,94,0.00,,,0.00,1.000000,,2013-09-25 05:12:00,
2013-09-24 21:23:00,38.0,36.0,-100.00,ESE,112,2.0,4.0,94,0.00,,,0.00,1.000000,,2013-09-25 05:23:00,
2013-09-24 21:53:00,37.0,36.0,-100.00,North,349,2.0,4.0,97,0.00,,,0.00,0.000000,,2013-09-25 05:53:00,
2013-09-24 22:02:00,37.0,36.0,-100.00,North,349,2.0,4.0,97,0.00,,,0.00,0.000000,,2013-09-25 06:02:00,
2013-09-24 22:13:00,37.0,36.0,-100.00,North,349,2.0,4.0,97,0.00,,,0.00,0.000000,,2013-09-25 06:13:00,
2013-09-24 22:23:00,37.0,36.0,-100.00,North,349,2.0,4.0,97,0.00,,,0.00,0.000000,,2013-09-25 06:23:00,
2013-09-24 22:52:00,38.0,37.0,-100.00,SSE,152,4.0,9.0,98,0.00,,,0.00,0.000000,,2013-09-25 06:52:00,
2013-09-24 23:01:00,38.0,37.0,-100.00,SSE,152,4.0,9.0,98,0.00,,,0.00,0.000000,,2013-09-25 07:01:00,
2013-09-24 23:11:00,38.0,37.0,-100.00,SSE,152,4.0,9.0,98,0.00,,,0.00,0.000000,,2013-09-25 07:11:00,
2013-09-24 23:21:00,38.0,37.0,-100.00,SSE,152,4.0,9.0,98,0.00,,,0.00,0.000000,,2013-09-25 07:21:00,
2013-09-24 23:53:00,38.0,36.0,-100.00,SSE,159,3.0,9.0,91,0.00,,,0.00,0.000000,,2013-09-25 07:53:00,